createdAt,value
2023-04-02T00:02:34.509Z,98189.44
2023-04-02T00:05:31.585Z,98190.19
2023-04-02T00:08:01.139Z,98192.84
2023-04-02T00:10:33.648Z,98198.00
2023-04-02T00:13:07.040Z,98198.78
2023-04-02T00:15:35.391Z,98203.50
2023-04-02T00:18:05.516Z,98207.22
2023-04-02T00:20:36.299Z,98206.59
2023-04-02T00:23:04.382Z,98212.72
2023-04-02T00:25:36.200Z,98209.22
2023-04-02T00:28:04.792Z,98209.31
2023-04-02T00:30:33.853Z,98208.75
2023-04-02T00:33:02.890Z,98212.25
2023-04-02T00:35:32.626Z,98215.00
2023-04-02T00:38:02.420Z,98225.44
2023-04-02T00:40:32.265Z,98223.38
2023-04-02T00:43:04.448Z,98227.00
2023-04-02T00:45:34.427Z,98224.66
2023-04-02T00:48:15.799Z,98229.00
2023-04-02T00:50:46.254Z,98228.72
2023-04-02T00:53:22.995Z,98222.75
2023-04-02T00:55:51.250Z,98225.63
2023-04-02T00:58:27.454Z,98219.97
2023-04-02T01:00:55.802Z,98209.75
2023-04-02T01:03:36.618Z,98223.44
2023-04-02T01:06:11.680Z,98226.78
2023-04-02T01:09:11.326Z,98228.72
2023-04-02T01:11:52.354Z,98230.69
2023-04-02T01:14:30.778Z,98231.53
2023-04-02T01:17:03.524Z,98237.78
2023-04-02T01:19:49.079Z,98241.28
2023-04-02T01:22:23.801Z,98242.13
2023-04-02T01:24:51.957Z,98252.00
2023-04-02T01:27:22.035Z,98248.22
2023-04-02T01:29:53.208Z,98247.44
2023-04-02T01:32:22.034Z,98250.22
2023-04-02T01:34:51.124Z,98254.72
2023-04-02T01:37:27.706Z,98252.25
2023-04-02T01:40:07.773Z,98256.66
2023-04-02T01:42:39.649Z,98258.19
2023-04-02T01:45:12.182Z,98260.81
2023-04-02T01:47:40.588Z,98267.00
2023-04-02T01:50:22.952Z,98268.00
2023-04-02T01:52:52.740Z,98263.69
2023-04-02T01:55:25.507Z,98272.94
2023-04-02T01:57:54.751Z,98282.13
2023-04-02T02:00:23.845Z,98279.66
2023-04-02T02:02:52.676Z,98284.06
2023-04-02T02:05:23.458Z,98276.72
2023-04-02T02:07:51.820Z,98278.81
2023-04-02T02:10:23.856Z,98278.50
2023-04-02T02:12:51.474Z,98290.25
2023-04-02T02:15:20.677Z,98292.09
2023-04-02T02:17:50.843Z,98283.28
2023-04-02T02:20:19.048Z,98292.00
2023-04-02T02:22:48.258Z,98299.91
2023-04-02T02:25:17.736Z,98300.75
2023-04-02T02:27:49.427Z,98306.06
2023-04-02T02:30:19.007Z,98301.38
2023-04-02T02:32:55.911Z,98312.94
2023-04-02T02:35:26.802Z,98315.81
2023-04-02T02:37:58.582Z,98325.31
2023-04-02T02:40:29.369Z,98322.81
2023-04-02T02:42:59.102Z,98326.09
2023-04-02T02:45:29.285Z,98325.38
2023-04-02T02:47:58.429Z,98335.81
2023-04-02T02:50:28.373Z,98335.66
2023-04-02T02:52:58.841Z,98332.19
2023-04-02T02:55:29.569Z,98332.97
2023-04-02T02:58:00.194Z,98333.75
2023-04-02T03:00:28.291Z,98341.84
2023-04-02T03:02:58.657Z,98343.91
2023-04-02T03:05:29.150Z,98342.22
2023-04-02T03:07:58.560Z,98347.69
2023-04-02T03:10:31.483Z,98348.38
2023-04-02T03:13:04.767Z,98354.56
2023-04-02T03:15:35.544Z,98359.66
2023-04-02T03:18:09.487Z,98356.34
2023-04-02T03:20:39.297Z,98362.38
2023-04-02T03:23:13.985Z,98365.00
2023-04-02T03:25:45.039Z,98371.88
2023-04-02T03:28:16.219Z,98373.78
2023-04-02T03:30:47.537Z,98378.28
2023-04-02T03:33:19.219Z,98374.94
2023-04-02T03:35:49.411Z,98387.06
2023-04-02T03:38:21.393Z,98382.03
2023-04-02T03:40:59.268Z,98398.72
2023-04-02T03:43:28.460Z,98398.56
2023-04-02T03:45:59.085Z,98392.69
2023-04-02T03:48:32.594Z,98413.03
2023-04-02T03:51:01.965Z,98408.78
2023-04-02T03:53:32.122Z,98411.28
2023-04-02T03:56:00.396Z,98412.19
2023-04-02T03:58:30.155Z,98417.09
2023-04-02T04:01:01.784Z,98416.38
2023-04-02T04:03:33.965Z,98425.09
2023-04-02T04:06:03.577Z,98424.97
2023-04-02T04:08:34.961Z,98436.59
2023-04-02T04:11:04.813Z,98440.66
2023-04-02T04:13:36.330Z,98444.06
2023-04-02T04:16:06.230Z,98448.53
2023-04-02T04:18:39.665Z,98450.09
2023-04-02T04:21:15.455Z,98451.16
2023-04-02T04:23:50.358Z,98459.03
2023-04-02T04:26:21.201Z,98458.75
2023-04-02T04:28:58.471Z,98459.75
2023-04-02T04:31:33.870Z,98465.78
2023-04-02T04:34:09.522Z,98469.19
2023-04-02T04:36:47.737Z,98464.00
2023-04-02T04:39:19.015Z,98477.06
2023-04-02T04:41:47.573Z,98478.25
2023-04-02T04:44:18.145Z,98479.97
2023-04-02T04:46:48.478Z,98478.19
2023-04-02T04:49:20.374Z,98486.06
2023-04-02T04:51:52.032Z,98482.72
2023-04-02T04:54:20.204Z,98482.09
2023-04-02T04:56:50.180Z,98486.34
2023-04-02T04:59:21.883Z,98495.72
2023-04-02T05:01:52.883Z,98506.38
2023-04-02T05:04:25.648Z,98504.66
2023-04-02T05:06:56.403Z,98513.38
2023-04-02T05:09:28.453Z,98518.63
2023-04-02T05:12:03.196Z,98518.56
2023-04-02T05:14:35.937Z,98523.97
2023-04-02T05:17:06.473Z,98527.38
2023-04-02T05:19:38.227Z,98528.34
2023-04-02T05:22:15.756Z,98536.22
2023-04-02T05:24:51.260Z,98542.13
2023-04-02T05:27:30.743Z,98547.59
2023-04-02T05:30:02.517Z,98548.84
2023-04-02T05:32:33.031Z,98556.34
2023-04-02T05:35:05.330Z,98552.59
2023-04-02T05:37:32.994Z,98556.59
2023-04-02T05:40:07.330Z,98563.81
2023-04-02T05:42:36.927Z,98570.03
2023-04-02T05:45:09.886Z,98562.19
2023-04-02T05:47:41.098Z,98569.91
2023-04-02T05:50:30.419Z,98575.47
2023-04-02T05:53:03.872Z,98580.72
2023-04-02T05:55:44.646Z,98578.56
2023-04-02T05:58:34.454Z,98589.78
2023-04-02T06:01:23.521Z,98582.56
2023-04-02T06:03:56.755Z,98589.56
2023-04-02T06:06:34.494Z,98590.94
2023-04-02T06:09:08.552Z,98604.72
2023-04-02T06:11:42.206Z,98598.63
2023-04-02T06:14:11.736Z,98604.34
2023-04-02T06:16:39.709Z,98604.56
2023-04-02T06:19:11.288Z,98609.25
2023-04-02T06:21:46.141Z,98613.78
2023-04-02T06:24:17.533Z,98614.22
2023-04-02T06:26:46.592Z,98626.59
2023-04-02T06:29:19.516Z,98631.38
2023-04-02T06:31:51.165Z,98638.97
2023-04-02T06:34:20.787Z,98647.00
2023-04-02T06:36:50.265Z,98639.47
2023-04-02T06:39:20.368Z,98641.75
2023-04-02T06:41:47.984Z,98657.94
2023-04-02T06:44:17.719Z,98656.50
2023-04-02T06:46:49.914Z,98660.56
2023-04-02T06:49:21.554Z,98669.34
2023-04-02T06:51:52.888Z,98671.47
2023-04-02T06:54:21.050Z,98685.56
2023-04-02T06:56:49.849Z,98685.47
2023-04-02T06:59:18.263Z,98686.25
2023-04-02T07:01:49.368Z,98693.78
2023-04-02T07:04:17.670Z,98696.53
2023-04-02T07:06:45.350Z,98705.47
2023-04-02T07:09:14.390Z,98709.38
2023-04-02T07:11:42.139Z,98714.88
2023-04-02T07:14:12.208Z,98717.59
2023-04-02T07:16:40.433Z,98729.59
2023-04-02T07:19:08.245Z,98727.91
2023-04-02T07:21:35.857Z,98727.94
2023-04-02T07:24:03.397Z,98730.84
2023-04-02T07:26:32.892Z,98735.38
2023-04-02T07:29:00.581Z,98744.44
2023-04-02T07:31:29.239Z,98757.72
2023-04-02T07:33:59.767Z,98758.78
2023-04-02T07:36:28.880Z,98765.25
2023-04-02T07:38:57.222Z,98765.19
2023-04-02T07:41:25.116Z,98772.50
2023-04-02T07:43:54.246Z,98781.50
2023-04-02T07:46:21.907Z,98784.13
2023-04-02T07:48:49.540Z,98784.34
2023-04-02T07:51:18.981Z,98789.41
2023-04-02T07:53:50.043Z,98793.09
2023-04-02T07:56:19.802Z,98799.59
2023-04-02T07:58:47.724Z,98799.44
2023-04-02T08:01:23.926Z,98805.81
2023-04-02T08:03:54.291Z,98805.03
2023-04-02T08:06:22.586Z,98816.41
2023-04-02T08:08:50.319Z,98827.72
2023-04-02T08:11:18.056Z,98834.47
2023-04-02T08:13:46.593Z,98850.34
2023-04-02T08:16:14.303Z,98846.81
2023-04-02T08:18:43.441Z,98852.06
2023-04-02T08:21:11.634Z,98858.59
2023-04-02T08:23:39.280Z,98864.13
2023-04-02T08:26:07.377Z,98868.78
2023-04-02T08:28:35.134Z,98871.63
2023-04-02T08:31:04.617Z,98878.25
2023-04-02T08:33:32.567Z,98882.75
2023-04-02T08:36:01.686Z,98894.13
2023-04-02T08:38:29.463Z,98897.41
2023-04-02T08:41:01.368Z,98900.59
2023-04-02T08:43:50.319Z,98907.63
2023-04-02T08:46:20.890Z,98910.31
2023-04-02T08:48:52.864Z,98919.97
2023-04-02T08:51:25.161Z,98923.41
2023-04-02T08:53:54.618Z,98933.78
2023-04-02T08:56:28.586Z,98937.53
2023-04-02T08:58:57.798Z,98939.94
2023-04-02T09:01:34.874Z,98946.09
2023-04-02T09:04:04.221Z,98949.47
2023-04-02T09:06:34.619Z,98948.41
2023-04-02T09:09:02.377Z,98961.22
2023-04-02T09:11:35.601Z,98965.03
2023-04-02T09:14:06.966Z,98973.75
2023-04-02T09:16:41.238Z,98978.72
2023-04-02T09:19:21.265Z,98989.16
2023-04-02T09:22:07.533Z,98987.06
2023-04-02T09:24:35.365Z,98992.31
2023-04-02T09:27:03.156Z,98984.78
2023-04-02T09:29:44.124Z,99003.59
2023-04-02T09:32:24.294Z,99013.25
2023-04-02T09:34:52.309Z,99017.19
2023-04-02T09:37:22.869Z,99023.47
2023-04-02T09:39:50.472Z,99028.75
2023-04-02T09:42:38.098Z,99036.41
2023-04-02T09:45:16.528Z,99036.81
2023-04-02T09:47:44.302Z,99041.41
2023-04-02T09:50:23.496Z,99042.09
2023-04-02T09:52:52.493Z,99044.66
2023-04-02T09:55:22.967Z,99048.19
2023-04-02T09:57:51.927Z,99055.25
2023-04-02T10:03:05.591Z,99070.94
2023-04-02T10:08:20.064Z,99073.06
2023-04-02T10:10:50.360Z,99078.13
2023-04-02T10:13:25.525Z,99088.69
2023-04-02T10:15:57.243Z,99083.19
2023-04-02T10:18:34.447Z,99092.31
2023-04-02T10:21:02.600Z,99095.94
2023-04-02T10:23:33.065Z,99110.34
2023-04-02T10:26:17.268Z,99111.09
2023-04-02T10:28:56.014Z,99117.09
2023-04-02T10:31:26.429Z,99125.81
2023-04-02T10:34:00.748Z,99131.69
2023-04-02T10:36:38.056Z,99130.63
2023-04-02T10:39:08.491Z,99138.34
2023-04-02T10:41:41.714Z,99140.94
2023-04-02T10:44:26.213Z,99147.28
2023-04-02T10:47:03.284Z,99149.22
2023-04-02T10:49:36.612Z,99156.56
2023-04-02T10:52:09.032Z,99156.50
2023-04-02T10:54:47.632Z,99161.75
2023-04-02T10:57:23.777Z,99170.22
2023-04-02T10:59:56.583Z,99171.78
2023-04-02T11:02:32.807Z,99173.13
2023-04-02T11:05:04.892Z,99183.31
2023-04-02T11:07:39.856Z,99191.41
2023-04-02T11:10:12.439Z,99181.59
2023-04-02T11:12:44.027Z,99186.28
2023-04-02T11:15:16.233Z,99193.31
2023-04-02T11:17:44.697Z,99194.94
2023-04-02T11:20:44.428Z,99202.97
2023-04-02T11:23:13.077Z,99204.53
2023-04-02T11:25:42.562Z,99209.72
2023-04-02T11:28:27.083Z,99209.69
2023-04-02T11:30:54.974Z,99204.53
2023-04-02T11:33:42.053Z,99222.59
2023-04-02T11:36:49.024Z,99223.75
2023-04-02T11:39:49.545Z,99231.44
2023-04-02T11:42:35.017Z,99235.19
2023-04-02T11:45:51.966Z,99237.38
2023-04-02T11:48:31.028Z,99237.72
2023-04-02T11:50:59.008Z,99240.38
2023-04-02T11:53:29.951Z,99248.94
2023-04-02T11:56:10.910Z,99247.22
2023-04-02T11:58:47.594Z,99257.19
2023-04-02T12:01:46.431Z,99254.00
2023-04-02T12:04:36.146Z,99263.09
2023-04-02T12:07:52.118Z,99260.72
2023-04-02T12:10:21.708Z,99278.72
2023-04-02T12:12:51.494Z,99266.00
2023-04-02T12:15:35.664Z,99276.19
2023-04-02T12:18:14.024Z,99287.41
2023-04-02T12:20:42.689Z,99288.88
2023-04-02T12:23:18.439Z,99298.66
2023-04-02T12:25:54.296Z,99299.53
2023-04-02T12:28:23.696Z,99319.91
2023-04-02T12:30:52.220Z,99324.91
2023-04-02T12:33:30.534Z,99322.16
2023-04-02T12:35:59.514Z,99329.28
2023-04-02T12:38:28.731Z,99335.38
2023-04-02T12:40:57.850Z,99331.00
2023-04-02T12:43:31.291Z,99341.09
2023-04-02T12:46:01.387Z,99347.53
2023-04-02T12:48:29.595Z,99349.56
2023-04-02T12:50:57.691Z,99351.41
2023-04-02T12:53:27.814Z,99335.88
2023-04-02T12:55:55.583Z,99363.88
2023-04-02T12:58:27.559Z,99368.84
2023-04-02T13:04:03.212Z,99358.75
2023-04-02T13:06:31.972Z,99359.22
2023-04-02T13:09:00.346Z,99363.63
2023-04-02T13:11:36.104Z,99365.50
2023-04-02T13:14:05.052Z,99373.53
2023-04-02T13:16:37.245Z,99373.28
2023-04-02T13:19:23.088Z,99377.69
2023-04-02T13:21:52.503Z,99378.53
2023-04-02T13:24:21.080Z,99381.41
2023-04-02T13:26:49.694Z,99383.47
2023-04-02T13:29:21.360Z,99380.88
2023-04-02T13:31:49.404Z,99384.06
2023-04-02T13:34:18.950Z,99388.97
2023-04-02T13:36:47.004Z,99383.84
2023-04-02T13:39:14.591Z,99383.97
2023-04-02T13:41:43.777Z,99397.97
2023-04-02T13:44:20.845Z,99396.09
2023-04-02T13:46:48.636Z,99405.59
2023-04-02T13:49:16.359Z,99407.59
2023-04-02T13:51:47.304Z,99413.47
2023-04-02T13:54:27.325Z,99409.81
2023-04-02T13:56:56.374Z,99418.78
2023-04-02T13:59:24.244Z,99425.13
2023-04-02T14:01:54.083Z,99425.81
2023-04-02T14:04:23.742Z,99432.22
2023-04-02T14:07:22.537Z,99436.47
2023-04-02T14:10:00.498Z,99438.19
2023-04-02T14:12:39.015Z,99434.97
2023-04-02T14:15:17.752Z,99441.69
2023-04-02T14:17:55.336Z,99444.56
2023-04-02T14:20:34.985Z,99447.47
2023-04-02T14:23:36.318Z,99454.53
2023-04-02T14:26:10.798Z,99455.38
2023-04-02T14:28:46.468Z,99452.75
2023-04-02T14:31:20.514Z,99450.09
2023-04-02T14:33:56.288Z,99465.97
2023-04-02T14:36:28.547Z,99464.16
2023-04-02T14:39:05.177Z,99472.63
2023-04-02T14:41:38.388Z,99473.81
2023-04-02T14:44:07.649Z,99473.75
2023-04-02T14:46:38.397Z,99486.19
2023-04-02T14:49:16.580Z,99481.53
2023-04-02T14:51:47.176Z,99481.50
2023-04-02T14:54:19.801Z,99488.50
2023-04-02T14:56:50.348Z,99481.06
2023-04-02T14:59:26.872Z,99491.50
2023-04-02T15:01:57.788Z,99503.59
2023-04-02T15:04:29.111Z,99503.94
2023-04-02T15:07:02.387Z,99506.50
2023-04-02T15:09:33.230Z,99512.44
2023-04-02T15:12:03.092Z,99510.09
2023-04-02T15:14:35.829Z,99511.94
2023-04-02T15:17:03.420Z,99516.13
2023-04-02T15:19:31.029Z,99523.75
2023-04-02T15:22:09.639Z,99519.50
2023-04-02T15:24:46.009Z,99527.53
2023-04-02T15:27:25.612Z,99533.50
2023-04-02T15:29:57.676Z,99538.75
2023-04-02T15:32:30.470Z,99539.06
2023-04-02T15:35:02.914Z,99554.19
2023-04-02T15:37:34.665Z,99546.28
2023-04-02T15:40:21.301Z,99548.13
2023-04-02T15:42:55.972Z,99564.06
2023-04-02T15:45:28.087Z,99553.56
2023-04-02T15:48:12.949Z,99563.84
2023-04-02T15:50:47.834Z,99554.41
2023-04-02T15:53:29.485Z,99557.78
2023-04-02T15:56:06.053Z,99573.47
2023-04-02T15:58:45.610Z,99575.97
2023-04-02T16:01:20.041Z,99571.09
2023-04-02T16:04:02.948Z,99581.59
2023-04-02T16:06:32.509Z,99591.25
2023-04-02T16:09:09.080Z,99586.72
2023-04-02T16:11:39.476Z,99593.00
2023-04-02T16:14:26.273Z,99596.41
2023-04-02T16:16:56.962Z,99594.00
2023-04-02T16:19:30.212Z,99609.81
2023-04-02T16:22:02.559Z,99609.91
2023-04-02T16:24:30.287Z,99612.50
2023-04-02T16:27:02.086Z,99624.69
2023-04-02T16:29:51.461Z,99613.56
2023-04-02T16:32:37.769Z,99639.63
2023-04-02T16:35:41.024Z,99645.84
2023-04-02T16:38:13.097Z,99649.34
2023-04-02T16:40:45.163Z,99654.63
2023-04-02T16:43:23.518Z,99649.31
2023-04-02T16:45:58.351Z,99662.56
2023-04-02T16:48:33.033Z,99671.34
2023-04-02T16:51:10.883Z,99676.53
2023-04-02T16:53:58.393Z,99686.22
2023-04-02T16:56:49.601Z,99680.97
2023-04-02T16:59:26.522Z,99687.97
2023-04-02T17:01:59.443Z,99701.88
2023-04-02T17:04:46.087Z,99702.72
2023-04-02T17:07:23.345Z,99705.25
2023-04-02T17:09:52.070Z,99713.06
2023-04-02T17:12:22.417Z,99710.50
2023-04-02T17:14:54.684Z,99714.84
2023-04-02T17:17:23.764Z,99721.06
2023-04-02T17:19:53.132Z,99734.09
2023-04-02T17:22:22.732Z,99738.47
2023-04-02T17:24:53.884Z,99744.66
2023-04-02T17:27:26.734Z,99754.16
2023-04-02T17:29:59.999Z,99749.84
2023-04-02T17:32:31.409Z,99758.50
2023-04-02T17:34:59.325Z,99760.31
2023-04-02T17:37:32.156Z,99772.53
2023-04-02T17:40:09.012Z,99776.97
2023-04-02T17:42:45.777Z,99781.34
2023-04-02T17:45:18.401Z,99788.34
2023-04-02T17:47:51.865Z,99788.34
2023-04-02T17:50:48.145Z,99797.16
2023-04-02T17:53:27.326Z,99794.47
2023-04-02T17:56:02.130Z,99787.56
2023-04-02T17:58:42.837Z,99806.63
2023-04-02T18:01:15.515Z,99805.78
2023-04-02T18:03:51.167Z,99811.06
2023-04-02T18:06:22.049Z,99812.78
2023-04-02T18:09:04.229Z,99821.53
2023-04-02T18:11:37.921Z,99814.59
2023-04-02T18:14:17.563Z,99826.72
2023-04-02T18:16:50.122Z,99833.69
2023-04-02T18:19:19.262Z,99840.69
2023-04-02T18:21:56.080Z,99838.94
2023-04-02T18:24:39.370Z,99855.47
2023-04-02T18:27:22.655Z,99852.78
2023-04-02T18:29:57.704Z,99857.16
2023-04-02T18:32:38.555Z,99863.28
2023-04-02T18:35:11.912Z,99861.50
2023-04-02T18:37:47.218Z,99874.56
2023-04-02T18:40:26.821Z,99880.66
2023-04-02T18:43:01.761Z,99888.53
2023-04-02T18:45:36.072Z,99887.63
2023-04-02T18:48:11.356Z,99890.22
2023-04-02T18:50:40.924Z,99897.25
2023-04-02T18:53:12.861Z,99898.16
2023-04-02T18:55:42.552Z,99901.63
2023-04-02T18:58:13.164Z,99914.56
2023-04-02T19:00:42.666Z,99918.94
2023-04-02T19:03:17.107Z,99926.78
2023-04-02T19:05:50.565Z,99932.00
2023-04-02T19:08:20.933Z,99939.81
2023-04-02T19:10:49.493Z,99945.03
2023-04-02T19:13:18.396Z,99934.59
2023-04-02T19:16:01.219Z,99944.16
2023-04-02T19:18:37.733Z,99945.03
2023-04-02T19:21:15.034Z,99952.88
2023-04-02T19:23:56.825Z,99960.66
2023-04-02T19:26:28.622Z,99960.69
2023-04-02T19:29:01.310Z,99960.69
2023-04-02T19:31:42.440Z,99965.91
2023-04-02T19:34:18.242Z,99973.75
2023-04-02T19:36:48.384Z,99980.75
2023-04-02T19:39:39.632Z,99979.88
2023-04-02T19:42:13.099Z,99986.81
2023-04-02T19:44:46.069Z,99976.34
2023-04-02T19:47:14.407Z,99986.78
2023-04-02T19:49:43.385Z,99985.03
2023-04-02T19:52:11.128Z,99985.91
2023-04-02T19:54:38.767Z,99992.00
2023-04-02T19:57:06.960Z,99992.84
2023-04-02T19:59:34.744Z,99985.91
2023-04-02T20:02:05.865Z,99989.41
2023-04-02T20:04:33.599Z,99987.66
2023-04-02T20:07:02.878Z,99998.09
2023-04-02T20:09:30.689Z,99996.41
2023-04-02T20:11:58.305Z,99999.88
2023-04-02T20:14:26.015Z,100003.31
2023-04-02T20:16:53.661Z,100005.09
2023-04-02T20:19:21.374Z,100008.53
2023-04-02T20:21:48.972Z,100011.16
2023-04-02T20:24:17.954Z,100012.00
2023-04-02T20:26:45.485Z,100024.16
2023-04-02T20:29:13.131Z,100020.72
2023-04-02T20:31:40.774Z,100028.56
2023-04-02T20:34:09.930Z,100031.16
2023-04-02T20:36:37.705Z,100032.91
2023-04-02T20:39:07.830Z,100037.25
2023-04-02T20:41:36.841Z,100047.69
2023-04-02T20:44:04.544Z,100035.50
2023-04-02T20:46:32.192Z,100038.97
2023-04-02T20:48:59.830Z,100048.53
2023-04-02T20:51:27.451Z,100049.38
2023-04-02T20:53:55.346Z,100050.28
2023-04-02T20:56:24.609Z,100049.41
2023-04-02T20:58:53.831Z,100050.25
2023-04-02T21:01:23.261Z,100057.19
2023-04-02T21:03:54.594Z,100054.63
2023-04-02T21:06:23.689Z,100058.09
2023-04-02T21:08:51.630Z,100064.19
2023-04-02T21:11:22.383Z,100068.53
2023-04-02T21:13:50.942Z,100065.91
2023-04-02T21:16:21.932Z,100062.44
2023-04-02T21:18:50.856Z,100063.31
2023-04-02T21:21:18.986Z,100072.88
2023-04-02T21:23:46.780Z,100076.31
2023-04-02T21:26:16.425Z,100069.38
2023-04-02T21:28:44.776Z,100067.66
2023-04-02T21:31:13.838Z,100061.59
2023-04-02T21:33:44.634Z,100072.00
2023-04-02T21:36:13.977Z,100068.53
2023-04-02T21:38:43.104Z,100068.53
2023-04-02T21:41:16.390Z,100077.22
2023-04-02T21:43:44.201Z,100074.63
2023-04-02T21:46:11.778Z,100075.50
2023-04-02T21:48:40.631Z,100072.91
2023-04-02T21:51:12.334Z,100070.28
2023-04-02T21:53:40.792Z,100079.88
2023-04-02T21:56:10.438Z,100077.25
2023-04-02T21:58:38.134Z,100088.56
2023-04-02T22:01:09.103Z,100084.22
2023-04-02T22:03:41.757Z,100083.34
2023-04-02T22:06:14.431Z,100085.94
2023-04-02T22:08:42.828Z,100089.44
2023-04-02T22:11:12.402Z,100081.63
2023-04-02T22:13:40.824Z,100080.75
2023-04-02T22:16:11.832Z,100085.09
2023-04-02T22:18:39.993Z,100088.59
2023-04-02T22:21:08.043Z,100087.72
2023-04-02T22:23:37.997Z,100093.78
2023-04-02T22:26:08.945Z,100095.53
2023-04-02T22:28:36.969Z,100099.00
2023-04-02T22:31:06.635Z,100096.41
2023-04-02T22:33:35.713Z,100098.13
2023-04-02T22:36:03.636Z,100095.53
2023-04-02T22:38:31.841Z,100089.44
2023-04-02T22:41:08.985Z,100094.66
2023-04-02T22:43:37.617Z,100090.31
2023-04-02T22:46:05.847Z,100092.91
2023-04-02T22:48:33.550Z,100090.31
2023-04-02T22:51:01.414Z,100092.91
2023-04-02T22:53:29.974Z,100089.44
2023-04-02T22:56:03.070Z,100086.84
2023-04-02T22:58:32.191Z,100084.22
2023-04-02T23:01:05.410Z,100087.72
2023-04-02T23:03:33.635Z,100107.69
2023-04-02T23:06:02.201Z,100099.88
2023-04-02T23:08:29.990Z,100101.59
2023-04-02T23:11:02.798Z,100094.66
2023-04-02T23:13:33.072Z,100098.13
2023-04-02T23:16:02.650Z,100092.94
2023-04-02T23:18:30.417Z,100093.78
2023-04-02T23:20:58.073Z,100099.88
2023-04-02T23:23:26.457Z,100103.34
2023-04-02T23:26:03.621Z,100102.47
2023-04-02T23:28:32.635Z,100097.28
2023-04-02T23:31:00.737Z,100092.06
2023-04-02T23:33:28.302Z,100099.00
2023-04-02T23:35:55.906Z,100089.44
2023-04-02T23:38:23.475Z,100108.56
2023-04-02T23:40:51.262Z,100103.34
2023-04-02T23:43:19.004Z,100104.22
2023-04-02T23:45:49.744Z,100108.56
2023-04-02T23:48:17.976Z,100100.75
2023-04-02T23:50:46.329Z,100105.09
2023-04-02T23:53:14.137Z,100111.16
2023-04-02T23:55:41.810Z,100103.34
2023-04-02T23:58:09.562Z,100100.75
